Time;durP1;ratioP1;P1;durP2;ratioP2;P2;SDS_P1;SDS_P2;PMS_P1;PMS_P2;Temp;Humidity;BMP_temperature;BMP_pressure;BME280_temperature;BME280_humidity;BME280_pressure;Samples;Min_cycle;Max_cycle;Signal;HPM_P1;HPM_P2
2022/01/09 00:00:15;;;;;;;11.50;9.10;;;3.90;99.90;;;;;;5052952;28;20204;-82
2022/01/09 00:02:41;;;;;;;12.35;9.93;;;3.90;99.90;;;;;;5053275;28;20506;-78
2022/01/09 00:05:07;;;;;;;13.48;11.75;;;3.90;99.90;;;;;;5036388;28;20049;-82
2022/01/09 00:07:33;;;;;;;13.35;10.82;;;3.90;99.90;;;;;;5036214;28;20048;-79
2022/01/09 00:09:59;;;;;;;7.63;6.07;;;3.90;99.90;;;;;;5036537;28;20480;-78
2022/01/09 00:12:25;;;;;;;8.30;6.63;;;3.90;99.90;;;;;;5019776;28;20048;-81
2022/01/09 00:14:52;;;;;;;11.93;10.52;;;3.90;99.90;;;;;;5020017;28;20045;-82
2022/01/09 00:17:18;;;;;;;11.43;9.48;;;3.90;99.90;;;;;;5019776;28;20040;-79
2022/01/09 00:19:44;;;;;;;8.45;6.68;;;3.90;99.90;;;;;;5019735;28;20041;-78
2022/01/09 00:22:14;;;;;;;8.73;7.05;;;3.90;99.90;;;;;;5052896;28;20044;-79
2022/01/09 00:24:40;;;;;;;8.25;6.40;;;3.90;99.90;;;;;;5052261;28;20091;-82
2022/01/09 00:27:06;;;;;;;9.65;6.30;;;3.90;99.90;;;;;;5052818;28;20137;-82
2022/01/09 00:29:32;;;;;;;7.03;6.22;;;3.90;99.90;;;;;;5036212;28;20045;-82
2022/01/09 00:31:57;;;;;;;5.40;3.65;;;3.90;99.90;;;;;;5019396;28;20041;-82
2022/01/09 00:34:23;;;;;;;9.85;7.40;;;3.90;99.90;;;;;;5035877;28;20041;-79
2022/01/09 00:36:49;;;;;;;14.02;12.15;;;3.90;99.90;;;;;;5052376;28;20049;-79
2022/01/09 00:39:15;;;;;;;7.18;4.78;;;3.90;99.90;;;;;;5035685;28;20746;-79
2022/01/09 00:41:40;;;;;;;5.95;4.43;;;3.90;99.90;;;;;;5052293;28;20037;-82
2022/01/09 00:44:06;;;;;;;7.18;6.45;;;3.90;99.90;;;;;;5035545;28;20045;-81
2022/01/09 00:46:33;;;;;;;15.82;12.70;;;3.90;99.90;;;;;;5035590;28;20053;-82
2022/01/09 00:49:03;;;;;;;10.07;7.82;;;3.90;99.90;;;;;;5052107;28;20048;-82
2022/01/09 00:51:29;;;;;;;4.90;3.40;;;3.90;99.90;;;;;;5019627;28;20071;-79
2022/01/09 00:53:55;;;;;;;8.93;6.45;;;3.90;99.90;;;;;;5035315;28;20053;-82
2022/01/09 00:56:20;;;;;;;13.95;10.48;;;3.90;99.90;;;;;;5035442;28;20056;-79
2022/01/09 00:58:46;;;;;;;8.27;6.43;;;3.90;99.90;;;;;;5052182;28;20488;-81
2022/01/09 01:01:12;;;;;;;8.60;6.10;;;3.90;99.90;;;;;;5035689;28;20044;-82
2022/01/09 01:03:38;;;;;;;15.68;13.02;;;3.90;99.90;;;;;;5051881;28;20128;-82
2022/01/09 01:06:04;;;;;;;7.28;6.25;;;3.90;99.90;;;;;;5035226;28;20500;-79
2022/01/09 01:08:29;;;;;;;11.27;8.38;;;4.00;99.90;;;;;;5052081;28;20052;-79
2022/01/09 01:10:55;;;;;;;9.80;7.88;;;3.90;99.90;;;;;;5018370;28;20148;-82
2022/01/09 01:13:21;;;;;;;12.43;10.20;;;4.00;99.90;;;;;;5034911;28;20037;-82
2022/01/09 01:15:46;;;;;;;13.45;10.60;;;3.80;99.90;;;;;;5018604;28;20049;-82
2022/01/09 01:18:13;;;;;;;18.42;15.20;;;3.90;99.90;;;;;;5035053;28;20132;-79
2022/01/09 01:20:39;;;;;;;19.63;15.95;;;3.90;99.90;;;;;;5035331;28;20139;-79
2022/01/09 01:23:04;;;;;;;19.45;14.20;;;3.80;99.90;;;;;;5035054;28;20037;-79
2022/01/09 01:25:30;;;;;;;24.42;17.83;;;3.80;99.90;;;;;;5051351;28;20122;-79
2022/01/09 01:27:56;;;;;;;18.25;15.05;;;3.80;99.90;;;;;;5018636;28;20496;-82
2022/01/09 01:30:21;;;;;;;26.92;19.27;;;3.80;99.90;;;;;;5051604;28;20149;-79
2022/01/09 01:32:47;;;;;;;17.35;14.50;;;3.80;99.90;;;;;;5034941;28;20052;-82
2022/01/09 01:35:13;;;;;;;19.10;14.52;;;3.90;99.90;;;;;;5018644;28;20044;-79
2022/01/09 01:37:41;;;;;;;16.35;12.88;;;3.80;99.90;;;;;;5051719;28;20047;-82
2022/01/09 01:40:13;;;;;;;21.35;16.60;;;3.90;99.90;;;;;;5035372;28;20127;-82
2022/01/09 01:42:39;;;;;;;17.20;13.40;;;3.90;99.90;;;;;;5051483;28;20052;-82
2022/01/09 01:45:06;;;;;;;16.10;9.38;;;3.80;99.90;;;;;;5034848;28;20052;-79
2022/01/09 01:47:31;;;;;;;20.90;15.77;;;3.90;99.90;;;;;;5035272;28;20128;-82
2022/01/09 01:49:57;;;;;;;23.13;17.73;;;3.80;99.90;;;;;;5051665;28;20079;-82
2022/01/09 01:52:33;;;;;;;21.00;16.85;;;3.90;99.90;;;;;;5034781;28;20045;-81
2022/01/09 01:55:02;;;;;;;28.75;20.30;;;3.80;99.90;;;;;;5035435;28;20130;-82
2022/01/09 01:57:29;;;;;;;27.52;20.00;;;3.80;99.90;;;;;;5034801;28;20037;-78
2022/01/09 01:59:55;;;;;;;31.08;20.88;;;3.90;99.90;;;;;;5034665;28;20047;-82
2022/01/09 02:02:22;;;;;;;28.42;20.02;;;3.80;99.90;;;;;;5051171;28;20045;-81
2022/01/09 02:04:48;;;;;;;24.50;17.40;;;3.90;99.90;;;;;;5051206;28;20041;-82
2022/01/09 02:07:14;;;;;;;21.20;15.35;;;3.90;99.90;;;;;;5051208;28;20051;-82
2022/01/09 02:09:39;;;;;;;26.23;18.42;;;3.90;99.90;;;;;;5051409;28;20133;-78
2022/01/09 02:12:06;;;;;;;11.70;8.73;;;3.90;99.90;;;;;;5034660;28;20063;-79
2022/01/09 02:14:36;;;;;;;14.82;10.73;;;3.90;99.90;;;;;;5051091;28;20080;-81
2022/01/09 02:17:03;;;;;;;19.70;14.25;;;4.00;99.90;;;;;;5034450;28;20053;-82
2022/01/09 02:19:29;;;;;;;24.95;17.65;;;4.00;99.90;;;;;;5034714;28;20048;-82
2022/01/09 02:21:56;;;;;;;22.70;16.35;;;4.00;99.90;;;;;;5051082;28;20048;-81
2022/01/09 02:24:23;;;;;;;24.70;16.27;;;4.10;99.90;;;;;;5036670;28;20095;-81
2022/01/09 02:26:50;;;;;;;27.95;16.20;;;4.10;99.90;;;;;;5038331;28;20585;-81
2022/01/09 02:29:16;;;;;;;16.55;11.48;;;4.20;99.90;;;;;;5021770;28;20051;-81
2022/01/09 02:31:42;;;;;;;21.50;12.50;;;4.30;99.90;;;;;;5038290;28;20044;-80
2022/01/09 02:34:09;;;;;;;10.50;7.45;;;4.40;99.90;;;;;;5054514;28;20090;-82
2022/01/09 02:36:35;;;;;;;15.57;9.45;;;4.40;99.90;;;;;;5038067;28;20075;-78
2022/01/09 02:39:01;;;;;;;19.10;10.07;;;4.50;99.90;;;;;;5037975;28;20120;-78
2022/01/09 02:41:27;;;;;;;23.23;10.68;;;4.50;99.90;;;;;;5037976;28;20116;-78
2022/01/09 02:43:53;;;;;;;18.75;10.00;;;4.60;99.90;;;;;;5054798;28;20464;-81
2022/01/09 02:48:57;;;;;;;28.88;12.38;;;4.60;99.90;;;;;;5054672;28;20111;-81
2022/01/09 02:51:24;;;;;;;28.35;11.57;;;4.60;99.90;;;;;;5038254;28;20411;-82
2022/01/09 02:53:56;;;;;;;23.73;9.93;;;4.60;99.90;;;;;;5037840;28;20041;-81
2022/01/09 02:56:22;;;;;;;22.15;8.43;;;4.60;99.90;;;;;;5054699;28;20616;-78
2022/01/09 02:58:48;;;;;;;19.45;7.60;;;4.70;99.90;;;;;;5037591;28;20135;-79
2022/01/09 03:01:14;;;;;;;28.05;7.88;;;4.70;99.90;;;;;;5037580;28;20041;-78
2022/01/09 03:03:40;;;;;;;44.90;8.93;;;4.80;99.90;;;;;;5020940;28;20514;-78
2022/01/09 03:06:07;;;;;;;29.05;6.63;;;4.80;99.90;;;;;;5037283;28;20060;-78
2022/01/09 03:08:33;;;;;;;17.40;4.10;;;4.80;99.90;;;;;;5054110;28;20045;-78
2022/01/09 03:10:59;;;;;;;40.88;8.23;;;4.90;99.90;;;;;;5020836;28;20041;-78
2022/01/09 03:13:25;;;;;;;37.35;4.18;;;5.00;99.90;;;;;;5037670;28;20103;-81
2022/01/09 03:15:51;;;;;;;34.88;4.43;;;5.20;99.90;;;;;;5037220;28;20049;-81
2022/01/09 03:18:16;;;;;;;30.52;4.55;;;5.10;99.90;;;;;;5020880;28;20045;-78
2022/01/09 03:20:42;;;;;;;41.53;5.78;;;5.10;99.90;;;;;;5020790;28;20069;-77
2022/01/09 03:23:08;;;;;;;27.02;3.28;;;5.10;99.90;;;;;;5037241;28;20094;-80
2022/01/09 03:25:34;;;;;;;19.25;3.42;;;5.10;99.90;;;;;;5053508;28;20053;-81
2022/01/09 03:28:00;;;;;;;48.38;7.28;;;5.20;99.90;;;;;;5037021;28;20040;-78
2022/01/09 03:30:27;;;;;;;43.03;7.00;;;5.30;99.90;;;;;;5053763;28;20045;-78
2022/01/09 03:32:54;;;;;;;62.13;7.18;;;5.40;99.90;;;;;;5037089;28;20071;-82
2022/01/09 03:35:23;;;;;;;77.38;8.38;;;5.50;99.90;;;;;;5036754;28;20037;-78
2022/01/09 03:37:49;;;;;;;48.67;6.88;;;5.60;99.90;;;;;;5037526;28;20403;-78
2022/01/09 03:40:20;;;;;;;53.05;7.20;;;5.70;99.90;;;;;;5053615;28;20945;-82
2022/01/09 03:42:54;;;;;;;44.30;4.90;;;5.70;99.90;;;;;;5020188;28;20044;-78
2022/01/09 03:45:21;;;;;;;31.27;4.65;;;5.70;99.90;;;;;;5053446;28;20052;-81
2022/01/09 03:47:48;;;;;;;38.65;6.78;;;5.70;99.90;;;;;;5036667;28;20076;-77
2022/01/09 03:50:14;;;;;;;33.22;5.97;;;5.70;99.90;;;;;;5053732;28;20507;-78
2022/01/09 03:52:41;;;;;;;58.47;7.80;;;5.70;99.90;;;;;;5036681;28;20045;-81
2022/01/09 03:55:09;;;;;;;46.03;6.22;;;5.70;99.90;;;;;;5036848;28;20085;-77
2022/01/09 03:57:35;;;;;;;48.33;6.97;;;5.70;99.90;;;;;;5053143;28;20044;-78
2022/01/09 04:00:01;;;;;;;35.58;4.57;;;5.70;99.90;;;;;;5020075;28;20124;-81
2022/01/09 04:02:26;;;;;;;37.22;5.03;;;5.70;99.90;;;;;;5019941;28;20045;-77
2022/01/09 04:04:52;;;;;;;39.60;6.28;;;5.70;99.90;;;;;;5052982;28;20045;-77
2022/01/09 04:07:18;;;;;;;28.08;5.25;;;5.60;99.90;;;;;;5036374;28;20076;-81
2022/01/09 04:09:45;;;;;;;27.65;3.90;;;5.60;99.90;;;;;;5053124;28;20127;-81
2022/01/09 04:12:18;;;;;;;36.42;5.22;;;5.60;99.90;;;;;;5020150;28;20124;-81
2022/01/09 04:14:47;;;;;;;34.78;3.85;;;5.60;99.90;;;;;;5052960;28;20045;-77
2022/01/09 04:17:21;;;;;;;34.95;5.53;;;5.60;99.90;;;;;;5036137;28;20076;-77
2022/01/09 04:19:47;;;;;;;36.80;4.57;;;5.60;99.90;;;;;;5037421;28;20288;-81
2022/01/09 04:22:12;;;;;;;34.50;3.70;;;5.60;99.90;;;;;;5019605;28;20048;-81
2022/01/09 04:24:38;;;;;;;37.72;4.15;;;5.70;99.90;;;;;;5019898;28;20132;-78
2022/01/09 04:27:04;;;;;;;15.82;3.45;;;5.60;99.90;;;;;;5035672;28;20060;-78
2022/01/09 04:29:30;;;;;;;31.77;4.80;;;5.50;99.90;;;;;;5052481;28;20056;-82
2022/01/09 04:31:56;;;;;;;18.17;3.80;;;5.50;99.90;;;;;;5052456;28;20045;-81
2022/01/09 04:34:21;;;;;;;28.45;4.22;;;5.50;99.90;;;;;;5019633;28;20106;-81
2022/01/09 04:36:47;;;;;;;25.15;4.20;;;5.50;99.90;;;;;;5052347;28;20047;-81
2022/01/09 04:39:12;;;;;;;31.35;5.68;;;5.50;99.90;;;;;;5052264;28;20140;-81
2022/01/09 04:41:38;;;;;;;17.90;2.67;;;5.60;99.90;;;;;;5035889;28;20037;-77
2022/01/09 04:44:04;;;;;;;18.02;4.20;;;5.50;99.90;;;;;;5035876;28;20110;-82
2022/01/09 04:46:40;;;;;;;26.13;3.88;;;5.50;99.90;;;;;;5034796;28;20079;-81
2022/01/09 04:49:06;;;;;;;31.98;4.25;;;5.50;99.90;;;;;;5052170;28;20057;-77
2022/01/09 04:51:31;;;;;;;32.80;4.97;;;5.40;99.90;;;;;;5052172;28;20384;-79
2022/01/09 04:53:57;;;;;;;40.88;5.18;;;5.40;99.90;;;;;;5018908;28;20056;-81
2022/01/09 04:56:23;;;;;;;23.00;3.80;;;5.40;99.90;;;;;;5019047;28;20484;-79
2022/01/09 04:58:48;;;;;;;31.33;4.43;;;5.50;99.90;;;;;;5035317;28;20475;-77
2022/01/09 05:01:14;;;;;;;19.45;4.15;;;5.40;99.90;;;;;;5018960;28;20041;-80
2022/01/09 05:03:40;;;;;;;23.02;3.83;;;5.40;99.90;;;;;;5051971;28;20051;-77
2022/01/09 05:06:06;;;;;;;19.65;3.13;;;5.40;99.90;;;;;;5051805;28;20053;-79
2022/01/09 05:08:31;;;;;;;18.17;3.78;;;5.40;99.90;;;;;;5051898;28;20049;-81
2022/01/09 05:10:58;;;;;;;27.33;4.13;;;5.40;99.90;;;;;;5035455;28;20479;-80
2022/01/09 05:13:23;;;;;;;29.02;3.63;;;5.30;99.90;;;;;;5035556;28;20041;-77
2022/01/09 05:15:49;;;;;;;26.30;4.13;;;5.30;99.90;;;;;;5051651;28;20049;-77
2022/01/09 05:18:15;;;;;;;26.42;3.70;;;5.30;99.90;;;;;;5035382;28;20056;-82
2022/01/09 05:20:44;;;;;;;13.15;2.60;;;5.30;99.90;;;;;;5051658;28;20037;-81
2022/01/09 05:23:10;;;;;;;14.63;2.67;;;5.40;99.90;;;;;;5051980;28;20507;-81
2022/01/09 05:25:36;;;;;;;26.42;2.88;;;5.30;99.90;;;;;;5051571;28;20503;-77
2022/01/09 05:28:02;;;;;;;33.05;4.70;;;5.40;99.90;;;;;;5035494;28;20051;-81
2022/01/09 05:30:28;;;;;;;25.25;4.63;;;5.40;99.90;;;;;;5051710;28;20049;-82
2022/01/09 05:32:54;;;;;;;25.08;2.85;;;5.40;99.90;;;;;;5051507;28;20079;-80
2022/01/09 05:35:20;;;;;;;22.70;4.03;;;5.40;99.90;;;;;;5051555;28;20487;-78
2022/01/09 05:37:45;;;;;;;31.08;3.92;;;5.40;99.90;;;;;;5018397;28;20522;-79
2022/01/09 05:40:11;;;;;;;31.13;3.67;;;5.30;99.90;;;;;;5035043;28;20048;-77
2022/01/09 05:42:39;;;;;;;23.33;3.95;;;5.30;99.90;;;;;;5051443;28;20040;-78
2022/01/09 05:45:07;;;;;;;13.68;3.00;;;5.30;99.90;;;;;;5051595;28;20080;-78
2022/01/09 05:47:33;;;;;;;20.50;3.40;;;5.30;99.90;;;;;;5018761;28;20044;-78
2022/01/09 05:49:59;;;;;;;15.73;3.85;;;5.30;99.90;;;;;;5034771;28;20041;-77
2022/01/09 05:52:24;;;;;;;14.65;3.10;;;5.30;99.90;;;;;;5034753;28;20045;-77
2022/01/09 05:54:50;;;;;;;13.70;2.55;;;5.30;99.90;;;;;;5034582;28;20033;-78
2022/01/09 05:57:16;;;;;;;21.50;3.28;;;5.30;99.90;;;;;;5051532;28;20087;-78
2022/01/09 05:59:42;;;;;;;24.02;3.33;;;5.30;99.90;;;;;;5022319;28;20041;-78
2022/01/09 06:02:07;;;;;;;16.35;2.78;;;5.30;99.90;;;;;;5039014;28;20162;-78
2022/01/09 06:04:33;;;;;;;22.65;3.67;;;5.30;99.90;;;;;;5055352;28;20045;-78
2022/01/09 06:06:59;;;;;;;16.23;3.42;;;5.30;99.90;;;;;;5022351;28;20045;-82
2022/01/09 06:09:24;;;;;;;6.93;2.25;;;5.30;99.90;;;;;;5022107;28;20426;-82
2022/01/09 06:11:50;;;;;;;11.48;1.85;;;5.30;99.90;;;;;;5038591;28;20067;-82
2022/01/09 06:14:16;;;;;;;19.95;4.10;;;5.30;99.90;;;;;;5038566;28;20045;-78
2022/01/09 06:16:42;;;;;;;24.48;3.28;;;5.30;99.90;;;;;;5038382;28;20041;-80
2022/01/09 06:19:08;;;;;;;19.65;3.22;;;5.30;99.90;;;;;;5038394;28;20048;-83
2022/01/09 06:21:34;;;;;;;11.82;2.88;;;5.20;99.90;;;;;;5038472;28;20037;-82
2022/01/09 06:23:59;;;;;;;16.90;3.60;;;5.30;99.90;;;;;;5054710;28;20048;-82
2022/01/09 06:26:25;;;;;;;16.00;3.08;;;5.30;99.90;;;;;;5021590;28;20096;-82
2022/01/09 06:28:51;;;;;;;26.58;3.50;;;5.30;99.90;;;;;;5054825;28;20568;-78
2022/01/09 06:31:17;;;;;;;14.48;2.45;;;5.30;99.90;;;;;;5038116;28;20052;-80
2022/01/09 06:33:43;;;;;;;13.68;2.50;;;5.20;99.90;;;;;;5038101;28;20052;-83
2022/01/09 06:36:09;;;;;;;11.40;2.92;;;5.10;99.90;;;;;;5054988;28;20033;-82
2022/01/09 06:38:37;;;;;;;15.13;1.55;;;5.10;99.90;;;;;;5054881;28;20045;-78
2022/01/09 06:41:03;;;;;;;16.42;2.78;;;5.10;99.90;;;;;;5038512;28;20052;-82
2022/01/09 06:43:29;;;;;;;15.15;2.42;;;5.00;99.90;;;;;;5054436;28;20080;-83
2022/01/09 06:45:55;;;;;;;15.23;3.03;;;5.00;99.90;;;;;;5037884;28;20076;-83
2022/01/09 06:48:20;;;;;;;7.63;1.27;;;5.00;99.90;;;;;;5038129;28;20049;-82
2022/01/09 06:50:46;;;;;;;15.07;3.13;;;5.00;99.90;;;;;;5054300;28;20083;-78
2022/01/09 06:53:12;;;;;;;10.85;2.60;;;5.00;99.90;;;;;;5054570;28;20143;-78
2022/01/09 06:55:38;;;;;;;9.63;1.58;;;5.00;99.90;;;;;;5038020;28;20438;-83
2022/01/09 06:58:03;;;;;;;16.20;2.42;;;5.00;99.90;;;;;;5021288;28;20041;-83
2022/01/09 07:00:29;;;;;;;20.08;3.83;;;4.90;99.90;;;;;;5037808;28;20041;-82
2022/01/09 07:02:55;;;;;;;18.73;2.53;;;5.00;99.90;;;;;;5021177;28;20040;-78
2022/01/09 07:05:20;;;;;;;19.17;2.33;;;5.00;99.90;;;;;;5054266;28;20049;-78
2022/01/09 07:07:46;;;;;;;11.52;1.83;;;5.00;99.90;;;;;;5054061;28;20041;-82
2022/01/09 07:10:13;;;;;;;9.30;1.98;;;5.00;99.90;;;;;;5036743;28;20149;-78
2022/01/09 07:12:38;;;;;;;6.78;1.92;;;5.00;99.90;;;;;;5037418;28;20041;-79
2022/01/09 07:15:05;;;;;;;19.15;3.05;;;4.90;99.90;;;;;;5037310;28;20191;-82
2022/01/09 07:17:31;;;;;;;19.27;2.33;;;4.90;99.90;;;;;;5037605;28;20488;-83
2022/01/09 07:19:57;;;;;;;13.93;2.30;;;4.90;99.90;;;;;;5037346;28;20488;-79
2022/01/09 07:22:23;;;;;;;11.38;2.45;;;4.90;99.90;;;;;;5053923;28;20120;-79
2022/01/09 07:24:48;;;;;;;12.48;1.70;;;4.80;99.90;;;;;;5037208;28;20190;-83
2022/01/09 07:27:14;;;;;;;16.60;1.98;;;4.80;99.90;;;;;;5053698;28;20163;-83
2022/01/09 07:29:40;;;;;;;12.15;1.52;;;4.70;99.90;;;;;;5054019;28;20080;-83
2022/01/09 07:32:06;;;;;;;16.95;2.15;;;4.60;99.90;;;;;;5053614;28;20057;-83
2022/01/09 07:34:31;;;;;;;9.73;1.58;;;4.60;99.90;;;;;;5036848;28;20049;-83
2022/01/09 07:36:57;;;;;;;10.73;1.77;;;4.50;99.90;;;;;;5020399;28;20491;-83
2022/01/09 07:39:23;;;;;;;10.18;1.50;;;4.50;99.90;;;;;;5037119;28;20496;-79
2022/01/09 07:41:50;;;;;;;18.13;2.50;;;4.40;99.90;;;;;;5053456;28;20052;-82
2022/01/09 07:44:16;;;;;;;23.63;2.45;;;4.40;99.90;;;;;;5037094;28;20111;-78
2022/01/09 07:46:42;;;;;;;7.00;1.25;;;4.40;99.90;;;;;;5053380;28;20443;-82
2022/01/09 07:49:07;;;;;;;19.40;2.30;;;4.30;99.90;;;;;;5053215;28;20040;-83
2022/01/09 07:51:33;;;;;;;16.00;2.10;;;4.30;99.90;;;;;;5020453;28;20044;-83
2022/01/09 07:53:59;;;;;;;19.58;3.03;;;4.30;99.90;;;;;;5020278;28;20033;-82
2022/01/09 07:56:24;;;;;;;8.43;1.17;;;4.30;99.90;;;;;;5020105;28;20045;-83
2022/01/09 07:58:50;;;;;;;10.80;3.03;;;4.20;99.90;;;;;;5036477;28;20056;-78
2022/01/09 08:01:16;;;;;;;17.80;3.05;;;4.20;99.90;;;;;;5036375;28;20083;-78
2022/01/09 08:03:41;;;;;;;13.35;1.58;;;4.20;99.90;;;;;;5036613;28;20041;-79
2022/01/09 08:06:07;;;;;;;12.98;2.08;;;4.30;99.90;;;;;;5036306;28;20074;-78
2022/01/09 08:08:33;;;;;;;12.63;2.25;;;4.10;99.90;;;;;;5036260;28;20045;-79
2022/01/09 08:10:58;;;;;;;14.43;2.03;;;4.10;99.90;;;;;;5052782;28;20051;-82
2022/01/09 08:13:24;;;;;;;12.02;1.38;;;4.10;99.90;;;;;;5036629;28;20041;-79
2022/01/09 08:15:50;;;;;;;17.23;2.05;;;4.20;99.90;;;;;;5036425;28;20041;-78
2022/01/09 08:18:16;;;;;;;11.07;2.42;;;4.20;99.90;;;;;;5036302;28;20124;-83
2022/01/09 08:20:42;;;;;;;6.15;0.95;;;4.20;99.90;;;;;;5035970;28;20049;-79
2022/01/09 08:23:07;;;;;;;11.52;1.15;;;4.10;99.90;;;;;;5036446;28;20131;-81
2022/01/09 08:25:33;;;;;;;12.98;1.13;;;4.10;99.90;;;;;;5035953;28;20113;-80
2022/01/09 08:27:59;;;;;;;9.65;1.88;;;4.10;99.90;;;;;;5052597;28;20056;-78
2022/01/09 08:30:25;;;;;;;10.75;1.90;;;4.10;99.90;;;;;;5036139;28;20044;-79
2022/01/09 08:32:54;;;;;;;11.75;1.38;;;4.10;99.90;;;;;;5035891;28;20041;-82
2022/01/09 08:35:21;;;;;;;9.30;1.88;;;4.10;99.90;;;;;;5052376;28;20041;-83
2022/01/09 08:37:47;;;;;;;8.50;1.23;;;4.00;99.90;;;;;;5019555;28;20041;-78
2022/01/09 08:40:19;;;;;;;10.90;2.65;;;4.10;99.90;;;;;;5052536;28;20045;-79
2022/01/09 08:42:46;;;;;;;9.32;2.00;;;4.00;99.90;;;;;;5052417;28;20045;-83
2022/01/09 08:45:12;;;;;;;13.98;2.00;;;4.10;99.90;;;;;;5052319;28;20102;-81
2022/01/09 08:47:38;;;;;;;7.82;1.27;;;4.20;99.90;;;;;;5035727;28;20041;-82
2022/01/09 08:50:09;;;;;;;11.50;2.22;;;4.20;99.90;;;;;;5019531;28;20053;-83
2022/01/09 08:52:35;;;;;;;17.30;1.45;;;4.30;99.90;;;;;;5035484;28;20055;-78
2022/01/09 08:55:02;;;;;;;8.35;1.13;;;4.30;99.90;;;;;;5052081;28;20127;-83
2022/01/09 08:57:27;;;;;;;7.43;1.20;;;4.30;99.90;;;;;;5035412;28;20132;-78
2022/01/09 08:59:53;;;;;;;9.35;1.20;;;4.40;99.90;;;;;;5019413;28;20144;-82
2022/01/09 09:02:19;;;;;;;11.80;1.67;;;4.40;99.90;;;;;;5052048;28;20037;-80
2022/01/09 09:04:45;;;;;;;7.68;1.60;;;4.50;99.90;;;;;;5051963;28;20495;-82
2022/01/09 09:07:11;;;;;;;13.75;1.88;;;4.50;99.90;;;;;;5035083;28;20052;-78
2022/01/09 09:09:37;;;;;;;8.68;1.55;;;4.50;99.90;;;;;;5035188;28;20130;-83
2022/01/09 09:12:04;;;;;;;7.95;1.58;;;4.50;99.90;;;;;;5035196;28;20076;-82
2022/01/09 09:14:30;;;;;;;9.35;1.77;;;4.60;99.90;;;;;;5051841;28;20051;-79
2022/01/09 09:16:57;;;;;;;10.63;1.70;;;4.60;99.90;;;;;;5035112;28;20091;-82
2022/01/09 09:19:23;;;;;;;6.07;1.20;;;4.60;99.90;;;;;;5051582;28;20044;-78
2022/01/09 09:21:49;;;;;;;9.13;1.00;;;4.60;99.90;;;;;;5035037;28;20072;-78
2022/01/09 09:24:15;;;;;;;10.65;1.38;;;4.70;99.90;;;;;;5051892;28;20052;-83
2022/01/09 09:26:41;;;;;;;7.13;1.00;;;4.60;99.90;;;;;;5018226;28;20069;-79
2022/01/09 09:29:07;;;;;;;3.58;0.73;;;4.60;99.90;;;;;;5035170;28;20492;-82
2022/01/09 09:31:33;;;;;;;6.72;1.63;;;4.60;99.90;;;;;;5018767;28;20033;-80
2022/01/09 09:33:59;;;;;;;8.48;0.77;;;4.70;99.90;;;;;;5051019;28;20040;-82
2022/01/09 09:36:25;;;;;;;6.40;1.23;;;4.60;99.90;;;;;;5034859;28;20117;-82
2022/01/09 09:38:51;;;;;;;13.40;2.08;;;4.60;99.90;;;;;;5051531;28;20093;-82
2022/01/09 09:41:17;;;;;;;5.75;1.15;;;4.60;99.90;;;;;;5035185;28;20041;-79
2022/01/09 09:43:43;;;;;;;15.68;1.67;;;4.60;99.90;;;;;;5051333;28;20127;-78
2022/01/09 09:46:08;;;;;;;13.05;1.00;;;4.70;99.90;;;;;;5051348;28;20060;-78
2022/01/09 09:48:34;;;;;;;4.63;0.77;;;4.80;99.90;;;;;;5051383;28;20049;-79
2022/01/09 09:51:00;;;;;;;9.52;1.70;;;4.80;99.90;;;;;;5034691;28;20048;-81
2022/01/09 09:53:29;;;;;;;7.68;1.38;;;4.90;99.90;;;;;;5052035;28;20064;-82
2022/01/09 09:55:55;;;;;;;7.72;1.27;;;4.90;99.90;;;;;;5018475;28;20045;-82
2022/01/09 09:58:22;;;;;;;10.05;1.60;;;5.00;99.90;;;;;;5035252;28;20033;-82
2022/01/09 10:00:53;;;;;;;12.15;1.98;;;5.00;99.90;;;;;;5034840;28;20068;-83
2022/01/09 10:03:30;;;;;;;7.05;0.93;;;5.00;99.90;;;;;;5051293;28;20080;-79
2022/01/09 10:05:57;;;;;;;4.45;1.00;;;5.00;99.90;;;;;;5051321;28;20415;-79
2022/01/09 10:08:38;;;;;;;4.88;1.17;;;5.00;99.90;;;;;;5051161;28;20503;-79
2022/01/09 10:11:18;;;;;;;6.78;1.60;;;5.00;99.90;;;;;;5051167;28;20041;-82
2022/01/09 10:13:45;;;;;;;8.90;1.08;;;5.10;99.90;;;;;;5051087;28;20080;-79
2022/01/09 10:16:13;;;;;;;5.65;0.60;;;5.00;99.90;;;;;;5034616;28;20222;-79
2022/01/09 10:18:48;;;;;;;6.32;0.63;;;5.20;99.90;;;;;;5035073;28;20565;-79
2022/01/09 10:21:19;;;;;;;5.13;0.68;;;4.90;99.90;;;;;;5034530;28;20045;-79
2022/01/09 10:24:08;;;;;;;6.70;0.80;;;4.90;99.90;;;;;;5034329;28;20048;-82
2022/01/09 10:26:40;;;;;;;2.67;0.65;;;4.90;99.90;;;;;;5050951;28;20470;-79
2022/01/09 10:29:08;;;;;;;6.57;0.82;;;4.90;99.90;;;;;;5034896;28;20106;-83
2022/01/09 10:31:45;;;;;;;8.25;1.42;;;4.90;99.90;;;;;;5050965;28;20098;-79
2022/01/09 10:34:12;;;;;;;13.90;2.58;;;4.90;99.90;;;;;;5051071;28;20043;-79
2022/01/09 10:36:51;;;;;;;15.40;2.58;;;5.00;99.90;;;;;;5051332;28;20492;-82
2022/01/09 10:39:25;;;;;;;15.88;1.52;;;4.90;99.90;;;;;;5034411;28;20045;-79
2022/01/09 10:42:01;;;;;;;7.43;1.17;;;5.00;99.90;;;;;;5034422;28;20060;-83
2022/01/09 10:44:31;;;;;;;6.05;1.45;;;5.00;99.90;;;;;;5034488;28;20045;-79
2022/01/09 10:47:01;;;;;;;8.57;1.10;;;5.10;99.90;;;;;;5037808;28;20044;-82
2022/01/09 10:49:39;;;;;;;7.90;1.15;;;5.20;99.90;;;;;;5054352;28;20041;-82
2022/01/09 10:52:18;;;;;;;11.77;1.75;;;5.30;99.90;;;;;;5038007;28;20549;-79
2022/01/09 10:54:46;;;;;;;8.43;1.30;;;5.40;99.90;;;;;;5054456;28;20051;-79
2022/01/09 10:57:40;;;;;;;18.10;1.80;;;5.40;99.90;;;;;;5037618;28;20043;-79
2022/01/09 11:00:11;;;;;;;12.55;1.45;;;5.40;99.90;;;;;;5036889;28;20063;-82
2022/01/09 11:02:37;;;;;;;10.88;2.40;;;5.40;99.90;;;;;;5054481;28;20041;-83
2022/01/09 11:05:03;;;;;;;11.90;1.75;;;5.40;99.90;;;;;;5054154;28;20124;-83
2022/01/09 11:07:29;;;;;;;9.60;1.13;;;5.40;99.90;;;;;;5054089;28;20037;-79
2022/01/09 11:09:57;;;;;;;10.93;1.63;;;5.30;99.90;;;;;;5020963;28;20094;-83
2022/01/09 11:12:26;;;;;;;12.45;1.73;;;5.20;99.90;;;;;;5037996;28;20492;-79
2022/01/09 11:14:52;;;;;;;17.73;1.48;;;5.20;99.90;;;;;;5037696;28;20045;-83
2022/01/09 11:17:21;;;;;;;9.32;1.17;;;5.20;99.90;;;;;;5037437;28;20052;-82
2022/01/09 11:19:47;;;;;;;12.85;1.55;;;5.30;99.90;;;;;;5037159;28;20067;-81
2022/01/09 11:22:13;;;;;;;21.35;2.25;;;5.30;99.90;;;;;;5037468;28;20492;-79
2022/01/09 11:25:01;;;;;;;10.85;2.25;;;5.50;99.90;;;;;;5037463;28;20105;-79
2022/01/09 11:27:33;;;;;;;10.32;1.45;;;5.60;99.90;;;;;;5053685;28;20061;-80
2022/01/09 11:30:31;;;;;;;10.67;2.00;;;5.90;99.90;;;;;;5053837;28;20127;-80
2022/01/09 11:33:36;;;;;;;3.88;1.25;;;6.10;99.90;;;;;;5050609;28;20045;-83
2022/01/09 11:36:21;;;;;;;8.65;0.80;;;6.20;99.90;;;;;;5036956;28;20049;-83
2022/01/09 11:38:58;;;;;;;7.53;1.50;;;6.10;99.90;;;;;;5036786;28;20076;-80
2022/01/09 11:41:29;;;;;;;21.52;2.15;;;5.80;99.90;;;;;;5053935;28;20072;-80
2022/01/09 11:43:59;;;;;;;9.63;1.00;;;5.90;99.90;;;;;;5053405;28;20123;-82
2022/01/09 11:46:27;;;;;;;11.23;2.40;;;5.90;99.90;;;;;;5053369;28;20049;-79
2022/01/09 11:48:53;;;;;;;7.03;1.33;;;6.00;99.90;;;;;;5053255;28;20052;-79
2022/01/09 11:51:20;;;;;;;8.95;1.17;;;6.20;99.90;;;;;;5053311;28;20419;-80
2022/01/09 11:54:12;;;;;;;9.02;1.65;;;6.30;99.90;;;;;;5053294;28;20072;-79
2022/01/09 11:56:56;;;;;;;8.63;1.08;;;6.60;99.90;;;;;;5036293;28;20049;-79
2022/01/09 11:59:31;;;;;;;15.55;1.88;;;6.80;99.90;;;;;;5036783;28;20387;-80
2022/01/09 12:02:02;;;;;;;11.77;1.50;;;6.80;99.90;;;;;;5053154;28;20076;-80
2022/01/09 12:04:31;;;;;;;10.63;1.25;;;6.70;99.90;;;;;;5036327;28;20037;-80
2022/01/09 12:06:58;;;;;;;7.80;0.90;;;6.60;99.90;;;;;;5036301;28;20050;-80
2022/01/09 12:09:35;;;;;;;12.00;1.50;;;6.60;99.90;;;;;;5053376;28;20396;-80
2022/01/09 12:12:07;;;;;;;12.45;2.20;;;6.60;99.90;;;;;;5052940;28;20136;-80
2022/01/09 12:14:44;;;;;;;16.73;2.05;;;6.60;99.90;;;;;;5052827;28;20048;-80
2022/01/09 12:17:26;;;;;;;5.97;0.75;;;6.60;99.90;;;;;;5052983;28;20400;-80
2022/01/09 12:20:27;;;;;;;9.70;1.65;;;6.50;99.90;;;;;;5036116;28;20044;-82
2022/01/09 12:23:01;;;;;;;11.70;2.53;;;6.50;99.90;;;;;;5035552;28;20056;-80
2022/01/09 12:25:30;;;;;;;4.20;1.35;;;6.50;99.90;;;;;;5052648;28;20532;-82
2022/01/09 12:28:18;;;;;;;8.40;1.17;;;6.70;99.90;;;;;;5052091;28;20080;-82
2022/01/09 12:30:57;;;;;;;11.00;1.20;;;7.00;99.90;;;;;;5052565;28;20106;-83
2022/01/09 12:33:25;;;;;;;6.65;1.17;;;7.10;99.90;;;;;;5052384;28;20068;-82
2022/01/09 12:36:27;;;;;;;5.63;0.75;;;7.30;99.90;;;;;;5052296;28;20045;-80
2022/01/09 12:38:59;;;;;;;6.50;0.93;;;7.20;99.90;;;;;;5031375;28;20057;-80
2022/01/09 12:41:27;;;;;;;3.58;0.65;;;7.20;99.90;;;;;;5035649;28;20048;-83
2022/01/09 12:44:00;;;;;;;6.07;1.20;;;7.00;99.90;;;;;;5035594;28;20095;-82
2022/01/09 12:46:29;;;;;;;4.97;0.73;;;6.60;99.90;;;;;;5052280;28;20095;-80
2022/01/09 12:49:07;;;;;;;11.88;2.33;;;6.50;99.90;;;;;;5036042;28;20047;-80
2022/01/09 12:51:34;;;;;;;5.00;1.40;;;7.00;99.90;;;;;;5035534;28;20106;-82
2022/01/09 12:54:04;;;;;;;9.48;1.27;;;6.90;99.90;;;;;;5035428;28;20045;-80